Natividade, Brazil
Current Conditions -  °F | °C
As of 7:00 PM on Wednesday 26 Nov 2014 (Local Time) from SBCP Reporting Station
Clear Clear  
Wind Chill: 82°   Ceiling: Unl
Heat Index: 87°   Visibility: 6mi
Dew Point: 72°   Wind: 16mph
Humidity: 70%   Direction: 60°ENE
Pressure: 29.77"   Gusts: NA
Location:  21.05°S, 41.99°W
Report Text: SBCP 262100Z 06014KT CAVOK 28/22 Q1008
Loading
Personal Weather Stations






























Interactive Weather Map New forecast layout! Learn more

10-Day Weather Forecast

Advertisements
Track Severe Weather on mobile